Terminal Aerodrome Forecast
Issued by NWS Missoula, MT

Home | Current Version | Previous Version | Text Only | Print | Product List | Glossary On
Versions: 1 2 3 4 5 6 7 8 9 10 11 12 13
238
FTUS45 KMSO 241139
TAFMSO
TAF
KMSO 241139Z 2412/2512 VRB03KT 6SM -RA BR SCT015 OVC025
     FM241500 VRB03KT P6SM SCT025 BKN035
     FM241800 30008KT P6SM VCSH SCT050
     FM250300 30005KT P6SM FEW050=

USA.gov is the U.S. government's official web portal to all federal, state and local government web resources and services.